TRA407 EHAM-EFKS
Flight info
| Callsign | TRA407 |
|---|---|
| Flight time | N/A |
| Altitude | 35000 |
| Route | ANDIK N873 KEKIX Z708 AGISU DCT TUSKA DCT LOBBI DCT DEPEX DCT BAKLA DCT DIVEG DCT BEVNA |
| Aircraft | A21N/M-SDE2E3FGHIRWXY/LB1 |
Departure
| Time | 2026-04-18 08:21 |
|---|---|
| Airport | Amsterdam Airport Schiphol (EHAM) |
Arrival
| Time | N/A |
|---|---|
| Airport | Kuusamo Airport (EFKS) |
| Time | Latitude | Longitude | Altitude | Speed | Heading |
|---|---|---|---|---|---|
| 2026-04-18 08:05 | 52.30748 | 4.76902 | 4 ft | 0 kts | 50° |
| 2026-04-18 08:10 | 52.30746 | 4.76900 | 4 ft | 3 kts | 50° |
| 2026-04-18 08:10 | 52.30729 | 4.76867 | 4 ft | 4 kts | 52° |
| 2026-04-18 08:10 | 52.30717 | 4.76834 | 4 ft | 4 kts | 70° |
| 2026-04-18 08:11 | 52.30716 | 4.76813 | 4 ft | 4 kts | 154° |
| 2026-04-18 08:11 | 52.30734 | 4.76798 | 4 ft | 1 kts | 147° |
| 2026-04-18 08:11 | 52.30720 | 4.76811 | 4 ft | 4 kts | 154° |
| 2026-04-18 08:11 | 52.30699 | 4.76829 | 4 ft | 1 kts | 148° |
| 2026-04-18 08:12 | 52.30699 | 4.76830 | 4 ft | 1 kts | 148° |
| 2026-04-18 08:15 | 52.30694 | 4.76835 | 4 ft | 2 kts | 148° |
| 2026-04-18 08:16 | 52.30675 | 4.76857 | 4 ft | 4 kts | 134° |
| 2026-04-18 08:16 | 52.30658 | 4.76914 | 4 ft | 7 kts | 99° |
| 2026-04-18 08:16 | 52.30652 | 4.77003 | 4 ft | 9 kts | 92° |
| 2026-04-18 08:16 | 52.30650 | 4.77120 | 4 ft | 12 kts | 92° |
| 2026-04-18 08:17 | 52.30625 | 4.77254 | 4 ft | 14 kts | 135° |
| 2026-04-18 08:17 | 52.30551 | 4.77336 | 4 ft | 13 kts | 149° |
| 2026-04-18 08:17 | 52.30476 | 4.77405 | 4 ft | 10 kts | 160° |
| 2026-04-18 08:17 | 52.30469 | 4.77408 | 4 ft | 0 kts | 167° |
| 2026-04-18 08:19 | 52.30459 | 4.77412 | 4 ft | 3 kts | 174° |
| 2026-04-18 08:19 | 52.30432 | 4.77408 | 3 ft | 5 kts | 193° |
| 2026-04-18 08:19 | 52.30391 | 4.77382 | 3 ft | 8 kts | 194° |
| 2026-04-18 08:20 | 52.30331 | 4.77357 | 2 ft | 10 kts | 195° |
| 2026-04-18 08:20 | 52.30292 | 4.77315 | 1 ft | 1 kts | 238° |
| 2026-04-18 08:20 | 52.30256 | 4.77227 | 1 ft | 30 kts | 237° |
| 2026-04-18 08:20 | 52.30021 | 4.76615 | 3 ft | 96 kts | 238° |
| 2026-04-18 08:21 | 52.29569 | 4.75434 | 3 ft | 149 kts | 237° |
| 2026-04-18 08:21 | 52.28939 | 4.73819 | 166 ft | 170 kts | 238° |
| 2026-04-18 08:21 | 52.28354 | 4.72235 | 886 ft | 161 kts | 239° |
| 2026-04-18 08:21 | 52.27766 | 4.70549 | 1166 ft | 182 kts | 240° |
| 2026-04-18 08:22 | 52.27120 | 4.68670 | 1611 ft | 197 kts | 241° |
| 2026-04-18 08:22 | 52.26699 | 4.66490 | 2113 ft | 210 kts | 270° |
| 2026-04-18 08:22 | 52.27206 | 4.64218 | 2595 ft | 226 kts | 306° |
| 2026-04-18 08:22 | 52.28480 | 4.62614 | 2909 ft | 247 kts | 341° |
| 2026-04-18 08:23 | 52.30205 | 4.62335 | 3522 ft | 258 kts | 9° |
| 2026-04-18 08:23 | 52.31903 | 4.63455 | 4071 ft | 269 kts | 32° |
| 2026-04-18 08:23 | 52.33480 | 4.65160 | 4798 ft | 274 kts | 33° |
| 2026-04-18 08:23 | 52.35082 | 4.66874 | 5537 ft | 276 kts | 32° |
| 2026-04-18 08:24 | 52.36717 | 4.68553 | 6233 ft | 280 kts | 31° |
| 2026-04-18 08:24 | 52.38387 | 4.70226 | 6907 ft | 283 kts | 31° |
| 2026-04-18 08:24 | 52.40084 | 4.71903 | 7565 ft | 286 kts | 31° |
| 2026-04-18 08:24 | 52.41804 | 4.73582 | 8211 ft | 290 kts | 30° |
| 2026-04-18 08:25 | 52.43547 | 4.75272 | 8840 ft | 293 kts | 30° |
| 2026-04-18 08:25 | 52.45283 | 4.76952 | 9440 ft | 296 kts | 30° |
| 2026-04-18 08:25 | 52.47066 | 4.78677 | 10037 ft | 299 kts | 30° |
| 2026-04-18 08:25 | 52.48889 | 4.80438 | 10412 ft | 311 kts | 30° |
| 2026-04-18 08:26 | 52.50793 | 4.82279 | 10669 ft | 325 kts | 30° |
| 2026-04-18 08:26 | 52.52778 | 4.84231 | 10893 ft | 340 kts | 33° |
| 2026-04-18 08:26 | 52.54646 | 4.86735 | 11096 ft | 354 kts | 47° |